Ladd AAF Airfield
PAFB : rendu visible

Aérodrome :











RETROUVEZ-NOUS SUR...

 
LOGIN :

S'inscrire | Disclaimer

   EN    FR    IT 

 









Légende :    VFR   VFR Marginal   IFR   IFR Intensif   IFR Très Intensif
Visi : 
Plafond : 
>= 8 km
>= 3000ft
5 à 8 km
1000 à 3000 ft
1500m à 5 km
500 à 1000 ft
800 à 1500m
200 à 500 ft
< 800m
< 200 ft
Symboles :   Orages  Brouillard  Fortes neiges  Fortes précipitations  Vent > 20 kt






- Altitude de l'aérodrome : 454 ft
- Code IATA : FBK


PAFB - Ladd AAF

DERNIER METAR :
  • 011058Z AUTO 00000KT 10SM CLR M16/M21 A3039 RMK AO2 SLP303 T11601212

METARs EXPIRÉS :
  • 010958Z AUTO 00000KT 10SM CLR M18/M21 A3039 RMK AO2 SLP303 T11771209
  • 010858Z AUTO 00000KT 10SM CLR M16/M21 A3039 RMK AO2 SLP304 T11651209 410281169 52008

TAF TAF PAFB
Valide du 01 à 07h jusqu'au 02 à 13h UTC


010700Z 0107/0213 VRB06KT 9999 FEW210 QNH3025INS TXM02/0202Z TNM23/0115Z



MET'MAP, la Météo Aéronautique d'un coup d'oeil ! - Copyright ORBIFLY Décembre 2007 - Disclaimer

ORBIFLY MET'MAP TEAM :

Programmation & Développement : Alexandra Zaïnal
Sur une idée originale de : Baudouin d'Aumeries
Assistance à la programmation : Marc-Olivier Méhu
Soutien technique & logistique : Manuel Goepfert

Contact : metmap@orbifly.com




SOURCES & CREDITS :

   NOAA       Earth
Advisory